sensor_id;sensor_type;location;lat;lon;timestamp;pressure;altitude;pressure_sealevel;temperature;humidity
72560;BME280;62987;52.382;9.752;2023-07-02T00:00:37;99840.38;;;15.44;100.00
72560;BME280;62987;52.382;9.752;2023-07-02T00:03:05;99839.53;;;15.43;100.00
72560;BME280;62987;52.382;9.752;2023-07-02T00:05:33;99839.28;;;15.35;100.00
72560;BME280;62987;52.382;9.752;2023-07-02T00:08:01;99834.13;;;15.32;100.00
72560;BME280;62987;52.382;9.752;2023-07-02T00:10:29;99839.38;;;15.34;100.00
72560;BME280;62987;52.382;9.752;2023-07-02T00:12:57;99840.25;;;15.34;100.00
72560;BME280;62987;52.382;9.752;2023-07-02T00:15:27;99828.28;;;15.27;100.00
72560;BME280;62987;52.382;9.752;2023-07-02T00:17:54;99826.28;;;15.18;100.00
72560;BME280;62987;52.382;9.752;2023-07-02T00:20:24;99838.34;;;15.24;100.00
72560;BME280;62987;52.382;9.752;2023-07-02T00:22:52;99844.09;;;15.30;100.00
72560;BME280;62987;52.382;9.752;2023-07-02T00:25:21;99847.88;;;15.28;100.00
72560;BME280;62987;52.382;9.752;2023-07-02T00:27:49;99856.78;;;15.28;100.00
72560;BME280;62987;52.382;9.752;2023-07-02T00:30:18;99850.66;;;15.26;100.00
72560;BME280;62987;52.382;9.752;2023-07-02T00:32:47;99849.06;;;15.24;100.00
72560;BME280;62987;52.382;9.752;2023-07-02T00:35:15;99850.78;;;15.25;100.00
72560;BME280;62987;52.382;9.752;2023-07-02T00:37:43;99845.03;;;15.18;100.00
72560;BME280;62987;52.382;9.752;2023-07-02T00:40:11;99854.47;;;15.11;100.00
72560;BME280;62987;52.382;9.752;2023-07-02T00:42:39;99853.41;;;15.13;100.00
72560;BME280;62987;52.382;9.752;2023-07-02T00:45:09;99839.13;;;15.02;100.00
72560;BME280;62987;52.382;9.752;2023-07-02T00:47:37;99842.97;;;14.98;100.00
72560;BME280;62987;52.382;9.752;2023-07-02T00:50:07;99843.72;;;15.00;100.00
72560;BME280;62987;52.382;9.752;2023-07-02T00:52:36;99851.47;;;14.92;100.00
72560;BME280;62987;52.382;9.752;2023-07-02T00:55:05;99852.16;;;14.83;100.00
72560;BME280;62987;52.382;9.752;2023-07-02T00:57:33;99853.56;;;14.75;100.00
72560;BME280;62987;52.382;9.752;2023-07-02T01:00:01;99842.78;;;14.64;100.00
72560;BME280;62987;52.382;9.752;2023-07-02T01:02:31;99847.16;;;14.65;100.00
72560;BME280;62987;52.382;9.752;2023-07-02T01:04:59;99841.53;;;14.57;100.00
72560;BME280;62987;52.382;9.752;2023-07-02T01:07:29;99830.28;;;14.52;100.00
72560;BME280;62987;52.382;9.752;2023-07-02T01:09:57;99844.41;;;14.54;100.00
72560;BME280;62987;52.382;9.752;2023-07-02T01:12:26;99832.22;;;14.50;100.00
72560;BME280;62987;52.382;9.752;2023-07-02T01:14:58;99844.84;;;14.48;100.00
72560;BME280;62987;52.382;9.752;2023-07-02T01:17:31;99819.41;;;14.43;100.00
72560;BME280;62987;52.382;9.752;2023-07-02T01:20:07;99821.72;;;14.47;100.00
72560;BME280;62987;52.382;9.752;2023-07-02T01:22:36;99812.00;;;14.46;100.00
72560;BME280;62987;52.382;9.752;2023-07-02T01:25:06;99781.09;;;14.17;100.00
72560;BME280;62987;52.382;9.752;2023-07-02T01:27:36;99820.78;;;14.48;100.00
72560;BME280;62987;52.382;9.752;2023-07-02T01:30:07;99812.56;;;14.38;100.00
72560;BME280;62987;52.382;9.752;2023-07-02T01:32:37;99813.59;;;14.36;100.00
72560;BME280;62987;52.382;9.752;2023-07-02T01:35:07;99833.13;;;14.38;100.00
72560;BME280;62987;52.382;9.752;2023-07-02T01:37:36;99835.09;;;14.34;100.00
72560;BME280;62987;52.382;9.752;2023-07-02T01:40:06;99834.25;;;14.34;100.00
72560;BME280;62987;52.382;9.752;2023-07-02T01:42:35;99824.94;;;14.27;100.00
72560;BME280;62987;52.382;9.752;2023-07-02T01:45:04;99836.72;;;14.37;100.00
72560;BME280;62987;52.382;9.752;2023-07-02T01:47:32;99836.63;;;14.26;100.00
72560;BME280;62987;52.382;9.752;2023-07-02T01:50:03;99842.72;;;14.28;100.00
72560;BME280;62987;52.382;9.752;2023-07-02T01:52:32;99830.44;;;14.25;100.00
72560;BME280;62987;52.382;9.752;2023-07-02T01:55:01;99840.91;;;14.41;100.00
72560;BME280;62987;52.382;9.752;2023-07-02T01:57:30;99845.28;;;14.42;100.00
72560;BME280;62987;52.382;9.752;2023-07-02T01:59:58;99840.69;;;14.44;100.00
72560;BME280;62987;52.382;9.752;2023-07-02T02:02:26;99842.81;;;14.39;100.00
72560;BME280;62987;52.382;9.752;2023-07-02T02:04:54;99842.06;;;14.37;100.00
72560;BME280;62987;52.382;9.752;2023-07-02T02:07:23;99851.72;;;14.39;100.00
72560;BME280;62987;52.382;9.752;2023-07-02T02:09:53;99856.75;;;14.44;100.00
72560;BME280;62987;52.382;9.752;2023-07-02T02:12:21;99849.44;;;14.46;100.00
72560;BME280;62987;52.382;9.752;2023-07-02T02:14:49;99846.56;;;14.49;100.00
72560;BME280;62987;52.382;9.752;2023-07-02T02:17:18;99858.75;;;14.53;100.00
72560;BME280;62987;52.382;9.752;2023-07-02T02:19:46;99855.97;;;14.55;100.00
72560;BME280;62987;52.382;9.752;2023-07-02T02:22:14;99839.75;;;14.45;100.00
72560;BME280;62987;52.382;9.752;2023-07-02T02:24:42;99848.03;;;14.53;100.00
72560;BME280;62987;52.382;9.752;2023-07-02T02:27:11;99840.47;;;14.47;100.00
72560;BME280;62987;52.382;9.752;2023-07-02T02:29:39;99860.25;;;14.57;100.00
72560;BME280;62987;52.382;9.752;2023-07-02T02:32:08;99853.94;;;14.58;100.00
72560;BME280;62987;52.382;9.752;2023-07-02T02:34:37;99856.19;;;14.64;100.00
72560;BME280;62987;52.382;9.752;2023-07-02T02:37:06;99860.94;;;14.72;100.00
72560;BME280;62987;52.382;9.752;2023-07-02T02:39:34;99846.19;;;14.66;100.00
72560;BME280;62987;52.382;9.752;2023-07-02T02:42:04;99825.78;;;14.53;100.00
72560;BME280;62987;52.382;9.752;2023-07-02T02:44:33;99857.41;;;14.71;100.00
72560;BME280;62987;52.382;9.752;2023-07-02T02:47:02;99861.94;;;14.71;100.00
72560;BME280;62987;52.382;9.752;2023-07-02T02:49:31;99863.41;;;14.75;100.00
72560;BME280;62987;52.382;9.752;2023-07-02T02:51:59;99841.59;;;14.68;100.00
72560;BME280;62987;52.382;9.752;2023-07-02T02:54:27;99849.63;;;14.68;100.00
72560;BME280;62987;52.382;9.752;2023-07-02T02:56:55;99844.03;;;14.71;100.00
72560;BME280;62987;52.382;9.752;2023-07-02T02:59:23;99859.78;;;14.76;100.00
72560;BME280;62987;52.382;9.752;2023-07-02T03:01:53;99855.28;;;14.76;100.00
72560;BME280;62987;52.382;9.752;2023-07-02T03:04:21;99858.56;;;14.80;100.00
72560;BME280;62987;52.382;9.752;2023-07-02T03:06:51;99833.88;;;14.76;100.00
72560;BME280;62987;52.382;9.752;2023-07-02T03:09:19;99848.28;;;14.87;100.00
72560;BME280;62987;52.382;9.752;2023-07-02T03:11:47;99858.78;;;14.90;100.00
72560;BME280;62987;52.382;9.752;2023-07-02T03:14:16;99855.56;;;14.85;100.00
72560;BME280;62987;52.382;9.752;2023-07-02T03:16:44;99858.13;;;14.86;100.00
72560;BME280;62987;52.382;9.752;2023-07-02T03:19:14;99830.72;;;14.83;100.00
72560;BME280;62987;52.382;9.752;2023-07-02T03:21:43;99850.03;;;14.99;100.00
72560;BME280;62987;52.382;9.752;2023-07-02T03:24:11;99858.38;;;15.07;100.00
72560;BME280;62987;52.382;9.752;2023-07-02T03:26:40;99867.47;;;15.04;100.00
72560;BME280;62987;52.382;9.752;2023-07-02T03:29:08;99865.66;;;15.05;100.00
72560;BME280;62987;52.382;9.752;2023-07-02T03:31:37;99865.66;;;15.05;100.00
72560;BME280;62987;52.382;9.752;2023-07-02T03:34:07;99865.16;;;15.00;100.00
72560;BME280;62987;52.382;9.752;2023-07-02T03:36:37;99840.44;;;14.96;100.00
72560;BME280;62987;52.382;9.752;2023-07-02T03:39:05;99845.19;;;15.04;100.00
72560;BME280;62987;52.382;9.752;2023-07-02T03:41:36;99852.81;;;15.10;100.00
72560;BME280;62987;52.382;9.752;2023-07-02T03:44:04;99849.47;;;15.06;100.00
72560;BME280;62987;52.382;9.752;2023-07-02T03:46:32;99871.66;;;15.08;100.00
72560;BME280;62987;52.382;9.752;2023-07-02T03:49:00;99844.56;;;15.00;100.00
72560;BME280;62987;52.382;9.752;2023-07-02T03:51:29;99859.34;;;15.06;100.00
72560;BME280;62987;52.382;9.752;2023-07-02T03:53:59;99856.75;;;15.04;100.00
72560;BME280;62987;52.382;9.752;2023-07-02T03:56:27;99857.63;;;15.05;100.00
72560;BME280;62987;52.382;9.752;2023-07-02T03:58:55;99849.84;;;15.02;100.00
72560;BME280;62987;52.382;9.752;2023-07-02T04:01:23;99856.44;;;15.09;100.00
72560;BME280;62987;52.382;9.752;2023-07-02T04:03:52;99868.63;;;15.13;100.00
72560;BME280;62987;52.382;9.752;2023-07-02T04:06:20;99877.63;;;15.12;100.00
72560;BME280;62987;52.382;9.752;2023-07-02T04:08:49;99887.28;;;15.14;100.00
72560;BME280;62987;52.382;9.752;2023-07-02T04:11:19;99880.19;;;15.13;100.00
72560;BME280;62987;52.382;9.752;2023-07-02T04:13:47;99879.75;;;15.19;100.00
72560;BME280;62987;52.382;9.752;2023-07-02T04:16:15;99879.53;;;15.23;100.00
72560;BME280;62987;52.382;9.752;2023-07-02T04:18:43;99873.06;;;15.25;100.00
72560;BME280;62987;52.382;9.752;2023-07-02T04:21:11;99870.50;;;15.24;100.00
72560;BME280;62987;52.382;9.752;2023-07-02T04:23:39;99865.50;;;15.19;100.00
72560;BME280;62987;52.382;9.752;2023-07-02T04:26:07;99868.41;;;15.16;100.00
72560;BME280;62987;52.382;9.752;2023-07-02T04:28:57;99868.69;;;15.24;100.00
72560;BME280;62987;52.382;9.752;2023-07-02T04:31:25;99843.78;;;15.11;100.00
72560;BME280;62987;52.382;9.752;2023-07-02T04:33:54;99856.94;;;15.14;100.00
72560;BME280;62987;52.382;9.752;2023-07-02T04:36:22;99876.00;;;15.22;100.00
72560;BME280;62987;52.382;9.752;2023-07-02T04:38:50;99876.97;;;15.21;100.00
72560;BME280;62987;52.382;9.752;2023-07-02T04:41:18;99848.47;;;14.96;100.00
72560;BME280;62987;52.382;9.752;2023-07-02T04:43:46;99842.56;;;14.91;100.00
72560;BME280;62987;52.382;9.752;2023-07-02T04:46:16;99862.81;;;14.95;100.00
72560;BME280;62987;52.382;9.752;2023-07-02T04:48:45;99881.72;;;15.05;100.00
72560;BME280;62987;52.382;9.752;2023-07-02T04:51:14;99886.47;;;15.01;100.00
72560;BME280;62987;52.382;9.752;2023-07-02T04:53:42;99884.41;;;15.05;100.00
72560;BME280;62987;52.382;9.752;2023-07-02T04:56:10;99879.28;;;15.02;100.00
72560;BME280;62987;52.382;9.752;2023-07-02T04:58:38;99885.59;;;15.01;100.00
72560;BME280;62987;52.382;9.752;2023-07-02T05:01:06;99887.53;;;14.99;100.00
72560;BME280;62987;52.382;9.752;2023-07-02T05:03:37;99896.78;;;14.95;100.00
72560;BME280;62987;52.382;9.752;2023-07-02T05:06:05;99889.94;;;14.91;100.00
72560;BME280;62987;52.382;9.752;2023-07-02T05:08:33;99883.72;;;14.90;100.00
72560;BME280;62987;52.382;9.752;2023-07-02T05:11:01;99890.97;;;15.01;100.00
72560;BME280;62987;52.382;9.752;2023-07-02T05:13:29;99898.91;;;15.02;100.00
72560;BME280;62987;52.382;9.752;2023-07-02T05:15:57;99885.09;;;14.96;100.00
72560;BME280;62987;52.382;9.752;2023-07-02T05:18:25;99889.25;;;15.00;100.00
72560;BME280;62987;52.382;9.752;2023-07-02T05:20:54;99891.59;;;15.04;100.00
72560;BME280;62987;52.382;9.752;2023-07-02T05:23:22;99902.50;;;15.14;100.00
72560;BME280;62987;52.382;9.752;2023-07-02T05:25:50;99893.03;;;15.21;100.00
72560;BME280;62987;52.382;9.752;2023-07-02T05:28:18;99909.16;;;15.32;100.00
72560;BME280;62987;52.382;9.752;2023-07-02T05:30:46;99902.59;;;15.36;100.00
72560;BME280;62987;52.382;9.752;2023-07-02T05:33:14;99911.38;;;15.38;100.00
72560;BME280;62987;52.382;9.752;2023-07-02T05:35:42;99897.97;;;15.38;100.00
72560;BME280;62987;52.382;9.752;2023-07-02T05:38:13;99910.47;;;15.50;100.00
72560;BME280;62987;52.382;9.752;2023-07-02T05:40:42;99896.06;;;15.40;100.00
72560;BME280;62987;52.382;9.752;2023-07-02T05:43:10;99903.78;;;15.32;100.00
72560;BME280;62987;52.382;9.752;2023-07-02T05:45:38;99895.41;;;15.13;100.00
72560;BME280;62987;52.382;9.752;2023-07-02T05:48:06;99910.41;;;15.15;100.00
72560;BME280;62987;52.382;9.752;2023-07-02T05:50:34;99915.72;;;15.28;100.00
72560;BME280;62987;52.382;9.752;2023-07-02T05:53:02;99907.66;;;15.52;100.00
72560;BME280;62987;52.382;9.752;2023-07-02T05:55:32;99917.66;;;15.74;100.00
72560;BME280;62987;52.382;9.752;2023-07-02T05:58:00;99912.91;;;15.77;100.00
72560;BME280;62987;52.382;9.752;2023-07-02T06:00:29;99920.16;;;15.88;100.00
72560;BME280;62987;52.382;9.752;2023-07-02T06:02:57;99897.75;;;16.00;100.00
72560;BME280;62987;52.382;9.752;2023-07-02T06:05:25;99922.78;;;16.12;100.00
72560;BME280;62987;52.382;9.752;2023-07-02T06:07:54;99929.50;;;16.28;100.00
72560;BME280;62987;52.382;9.752;2023-07-02T06:10:22;99929.28;;;16.43;100.00
72560;BME280;62987;52.382;9.752;2023-07-02T06:12:51;99931.72;;;16.57;100.00
72560;BME280;62987;52.382;9.752;2023-07-02T06:15:20;99918.34;;;16.68;100.00
72560;BME280;62987;52.382;9.752;2023-07-02T06:17:48;99906.88;;;16.77;100.00
72560;BME280;62987;52.382;9.752;2023-07-02T06:20:16;99933.97;;;16.85;100.00
72560;BME280;62987;52.382;9.752;2023-07-02T06:22:44;99919.31;;;16.89;100.00
72560;BME280;62987;52.382;9.752;2023-07-02T06:25:13;99913.44;;;16.84;100.00
72560;BME280;62987;52.382;9.752;2023-07-02T06:27:41;99939.06;;;16.99;100.00
72560;BME280;62987;52.382;9.752;2023-07-02T06:30:11;99922.69;;;17.13;100.00
72560;BME280;62987;52.382;9.752;2023-07-02T06:32:39;99933.97;;;17.39;100.00
72560;BME280;62987;52.382;9.752;2023-07-02T06:35:08;99918.47;;;17.32;100.00
72560;BME280;62987;52.382;9.752;2023-07-02T06:37:36;99934.81;;;17.40;100.00
72560;BME280;62987;52.382;9.752;2023-07-02T06:40:05;99936.28;;;17.44;100.00
72560;BME280;62987;52.382;9.752;2023-07-02T06:42:33;99908.97;;;17.28;100.00
72560;BME280;62987;52.382;9.752;2023-07-02T06:45:02;99950.72;;;17.32;100.00
72560;BME280;62987;52.382;9.752;2023-07-02T06:47:33;99912.94;;;17.44;100.00
72560;BME280;62987;52.382;9.752;2023-07-02T06:50:01;99940.78;;;17.54;100.00
72560;BME280;62987;52.382;9.752;2023-07-02T06:52:29;99948.94;;;17.64;100.00
72560;BME280;62987;52.382;9.752;2023-07-02T06:54:57;99931.84;;;17.54;100.00
72560;BME280;62987;52.382;9.752;2023-07-02T06:57:25;99945.88;;;17.57;100.00
72560;BME280;62987;52.382;9.752;2023-07-02T06:59:57;99942.53;;;17.76;100.00
72560;BME280;62987;52.382;9.752;2023-07-02T07:02:26;99938.81;;;17.68;100.00
72560;BME280;62987;52.382;9.752;2023-07-02T07:04:56;99956.38;;;18.04;100.00
72560;BME280;62987;52.382;9.752;2023-07-02T07:07:24;99956.56;;;18.32;100.00
72560;BME280;62987;52.382;9.752;2023-07-02T07:09:52;99960.03;;;18.03;100.00
72560;BME280;62987;52.382;9.752;2023-07-02T07:12:20;99970.50;;;18.17;100.00
72560;BME280;62987;52.382;9.752;2023-07-02T07:14:48;99971.22;;;18.19;100.00
72560;BME280;62987;52.382;9.752;2023-07-02T07:17:16;99927.88;;;17.80;100.00
72560;BME280;62987;52.382;9.752;2023-07-02T07:19:44;99972.66;;;18.23;100.00
72560;BME280;62987;52.382;9.752;2023-07-02T07:22:14;99969.25;;;18.21;100.00
72560;BME280;62987;52.382;9.752;2023-07-02T07:24:42;99958.66;;;18.50;100.00
72560;BME280;62987;52.382;9.752;2023-07-02T07:27:10;99972.94;;;18.20;100.00
72560;BME280;62987;52.382;9.752;2023-07-02T07:29:38;99971.41;;;18.06;100.00
72560;BME280;62987;52.382;9.752;2023-07-02T07:32:06;99974.53;;;18.73;100.00
72560;BME280;62987;52.382;9.752;2023-07-02T07:34:35;99992.19;;;18.57;100.00
72560;BME280;62987;52.382;9.752;2023-07-02T07:37:03;99998.31;;;18.48;100.00
72560;BME280;62987;52.382;9.752;2023-07-02T07:39:33;99986.13;;;18.44;100.00
72560;BME280;62987;52.382;9.752;2023-07-02T07:42:02;99982.72;;;18.21;100.00
72560;BME280;62987;52.382;9.752;2023-07-02T07:44:30;99996.63;;;18.05;100.00
72560;BME280;62987;52.382;9.752;2023-07-02T07:46:58;99982.19;;;18.06;100.00
72560;BME280;62987;52.382;9.752;2023-07-02T07:49:26;99995.16;;;18.01;100.00
72560;BME280;62987;52.382;9.752;2023-07-02T07:51:54;99996.28;;;17.98;100.00
72560;BME280;62987;52.382;9.752;2023-07-02T07:54:22;99984.03;;;18.26;100.00
72560;BME280;62987;52.382;9.752;2023-07-02T07:56:52;99999.00;;;18.61;100.00
72560;BME280;62987;52.382;9.752;2023-07-02T07:59:20;100009.28;;;18.97;100.00
72560;BME280;62987;52.382;9.752;2023-07-02T08:01:48;99992.50;;;18.63;100.00
72560;BME280;62987;52.382;9.752;2023-07-02T08:04:16;100011.22;;;19.26;100.00
72560;BME280;62987;52.382;9.752;2023-07-02T08:06:45;100005.53;;;19.49;100.00
72560;BME280;62987;52.382;9.752;2023-07-02T08:09:13;100014.47;;;18.80;100.00
72560;BME280;62987;52.382;9.752;2023-07-02T08:11:41;100014.63;;;18.25;100.00
72560;BME280;62987;52.382;9.752;2023-07-02T08:14:11;100025.13;;;18.08;100.00
72560;BME280;62987;52.382;9.752;2023-07-02T08:16:39;100022.22;;;18.00;100.00
72560;BME280;62987;52.382;9.752;2023-07-02T08:19:07;100015.66;;;18.13;100.00
72560;BME280;62987;52.382;9.752;2023-07-02T08:21:35;100026.78;;;17.88;100.00
72560;BME280;62987;52.382;9.752;2023-07-02T08:24:03;100028.47;;;19.04;100.00
72560;BME280;62987;52.382;9.752;2023-07-02T08:26:33;100032.28;;;19.41;100.00
72560;BME280;62987;52.382;9.752;2023-07-02T08:29:03;100024.53;;;19.58;91.65
72560;BME280;62987;52.382;9.752;2023-07-02T08:31:32;100023.75;;;19.86;85.04
72560;BME280;62987;52.382;9.752;2023-07-02T08:34:02;100018.47;;;19.55;95.38
72560;BME280;62987;52.382;9.752;2023-07-02T08:36:30;100031.41;;;19.62;92.00
72560;BME280;62987;52.382;9.752;2023-07-02T08:38:58;100024.50;;;20.46;82.99
72560;BME280;62987;52.382;9.752;2023-07-02T08:41:26;100023.25;;;20.96;84.27
72560;BME280;62987;52.382;9.752;2023-07-02T08:43:55;100027.84;;;20.86;82.04
72560;BME280;62987;52.382;9.752;2023-07-02T08:46:23;100032.75;;;20.54;84.13
72560;BME280;62987;52.382;9.752;2023-07-02T08:48:53;100049.78;;;20.16;83.76
72560;BME280;62987;52.382;9.752;2023-07-02T08:51:21;100055.88;;;19.89;83.65
72560;BME280;62987;52.382;9.752;2023-07-02T08:53:49;100054.31;;;19.77;74.59
72560;BME280;62987;52.382;9.752;2023-07-02T08:56:17;100044.91;;;19.81;75.45
72560;BME280;62987;52.382;9.752;2023-07-02T08:58:45;100045.22;;;20.16;71.43
72560;BME280;62987;52.382;9.752;2023-07-02T09:01:14;100051.09;;;20.60;68.08
72560;BME280;62987;52.382;9.752;2023-07-02T09:03:42;100041.69;;;20.25;69.07
72560;BME280;62987;52.382;9.752;2023-07-02T09:06:11;100056.47;;;20.21;71.50
72560;BME280;62987;52.382;9.752;2023-07-02T09:08:40;100049.78;;;20.06;70.13
72560;BME280;62987;52.382;9.752;2023-07-02T09:11:08;100061.63;;;19.65;74.65
72560;BME280;62987;52.382;9.752;2023-07-02T09:13:46;100060.66;;;19.66;73.11
72560;BME280;62987;52.382;9.752;2023-07-02T09:16:22;100063.03;;;19.60;75.30
72560;BME280;62987;52.382;9.752;2023-07-02T09:18:58;100047.66;;;20.00;70.20
72560;BME280;62987;52.382;9.752;2023-07-02T09:21:38;100038.44;;;20.03;65.92
72560;BME280;62987;52.382;9.752;2023-07-02T09:24:14;100041.50;;;19.79;69.67
72560;BME280;62987;52.382;9.752;2023-07-02T09:26:44;100045.75;;;19.72;68.60
72560;BME280;62987;52.382;9.752;2023-07-02T09:29:12;100053.88;;;19.41;71.09
72560;BME280;62987;52.382;9.752;2023-07-02T09:31:45;100069.66;;;19.46;74.28
72560;BME280;62987;52.382;9.752;2023-07-02T09:34:34;100058.66;;;19.28;75.55
72560;BME280;62987;52.382;9.752;2023-07-02T09:37:05;100049.53;;;19.20;77.10
72560;BME280;62987;52.382;9.752;2023-07-02T09:39:34;100047.06;;;19.37;76.91
72560;BME280;62987;52.382;9.752;2023-07-02T09:42:05;100066.03;;;19.57;72.53
72560;BME280;62987;52.382;9.752;2023-07-02T09:44:34;100064.88;;;20.09;70.04
72560;BME280;62987;52.382;9.752;2023-07-02T09:47:03;100051.75;;;19.85;70.80
72560;BME280;62987;52.382;9.752;2023-07-02T09:49:33;100074.56;;;19.71;74.57
72560;BME280;62987;52.382;9.752;2023-07-02T09:52:04;100069.81;;;19.44;72.05
72560;BME280;62987;52.382;9.752;2023-07-02T09:54:32;100080.59;;;19.44;69.57
72560;BME280;62987;52.382;9.752;2023-07-02T09:57:02;100061.13;;;19.81;66.12
72560;BME280;62987;52.382;9.752;2023-07-02T09:59:31;100067.78;;;19.77;63.62
72560;BME280;62987;52.382;9.752;2023-07-02T10:01:59;100067.50;;;19.80;64.29
72560;BME280;62987;52.382;9.752;2023-07-02T10:04:39;100084.72;;;19.98;64.80
72560;BME280;62987;52.382;9.752;2023-07-02T10:07:11;100074.16;;;19.66;63.64
72560;BME280;62987;52.382;9.752;2023-07-02T10:09:43;100084.81;;;19.37;63.97
72560;BME280;62987;52.382;9.752;2023-07-02T10:12:18;100070.09;;;19.21;68.17
72560;BME280;62987;52.382;9.752;2023-07-02T10:14:47;100082.22;;;19.57;69.18
72560;BME280;62987;52.382;9.752;2023-07-02T10:17:26;100092.91;;;19.77;63.97
72560;BME280;62987;52.382;9.752;2023-07-02T10:19:57;100092.91;;;19.77;62.78
72560;BME280;62987;52.382;9.752;2023-07-02T10:22:26;100075.41;;;19.62;60.78
72560;BME280;62987;52.382;9.752;2023-07-02T10:24:56;100084.75;;;20.08;60.40
72560;BME280;62987;52.382;9.752;2023-07-02T10:27:34;100089.31;;;20.26;60.02
72560;BME280;62987;52.382;9.752;2023-07-02T10:30:03;100100.97;;;20.75;55.78
72560;BME280;62987;52.382;9.752;2023-07-02T10:32:32;100085.34;;;20.69;55.07
72560;BME280;62987;52.382;9.752;2023-07-02T10:35:02;100099.44;;;20.44;55.59
72560;BME280;62987;52.382;9.752;2023-07-02T10:37:38;100096.47;;;20.47;55.73
72560;BME280;62987;52.382;9.752;2023-07-02T10:40:08;100102.41;;;20.69;56.48
72560;BME280;62987;52.382;9.752;2023-07-02T10:42:47;100107.50;;;20.82;56.89
72560;BME280;62987;52.382;9.752;2023-07-02T10:45:15;100100.28;;;20.63;58.54
72560;BME280;62987;52.382;9.752;2023-07-02T10:47:44;100111.25;;;20.52;58.04
72560;BME280;62987;52.382;9.752;2023-07-02T10:50:20;100109.97;;;20.66;57.60
72560;BME280;62987;52.382;9.752;2023-07-02T10:52:51;100088.03;;;20.69;59.46
72560;BME280;62987;52.382;9.752;2023-07-02T10:55:19;100115.50;;;20.64;59.46
72560;BME280;62987;52.382;9.752;2023-07-02T10:57:48;100117.50;;;20.62;60.84
72560;BME280;62987;52.382;9.752;2023-07-02T11:00:19;100101.16;;;20.73;58.51
72560;BME280;62987;52.382;9.752;2023-07-02T11:02:47;100045.25;;;20.55;58.35
72560;BME280;62987;52.382;9.752;2023-07-02T11:05:15;100108.09;;;20.76;56.64
72560;BME280;62987;52.382;9.752;2023-07-02T11:07:43;100111.19;;;21.00;56.92
72560;BME280;62987;52.382;9.752;2023-07-02T11:10:20;100099.00;;;21.33;56.05
72560;BME280;62987;52.382;9.752;2023-07-02T11:12:48;100111.13;;;21.39;54.24
72560;BME280;62987;52.382;9.752;2023-07-02T11:15:17;100104.94;;;21.83;53.04
72560;BME280;62987;52.382;9.752;2023-07-02T11:17:45;100100.44;;;22.37;51.25
72560;BME280;62987;52.382;9.752;2023-07-02T11:20:14;100090.50;;;22.63;47.57
72560;BME280;62987;52.382;9.752;2023-07-02T11:22:43;100104.38;;;23.47;48.15
72560;BME280;62987;52.382;9.752;2023-07-02T11:25:12;100103.41;;;23.05;47.79
72560;BME280;62987;52.382;9.752;2023-07-02T11:27:43;100099.28;;;22.40;48.43
72560;BME280;62987;52.382;9.752;2023-07-02T11:30:12;100112.44;;;21.89;50.19
72560;BME280;62987;52.382;9.752;2023-07-02T11:32:48;100124.00;;;21.18;53.03
72560;BME280;62987;52.382;9.752;2023-07-02T11:35:17;100117.78;;;20.50;57.23
72560;BME280;62987;52.382;9.752;2023-07-02T11:37:45;100101.28;;;20.53;55.81
72560;BME280;62987;52.382;9.752;2023-07-02T11:40:17;100111.53;;;20.59;56.58
72560;BME280;62987;52.382;9.752;2023-07-02T11:42:47;100117.41;;;21.20;56.40
72560;BME280;62987;52.382;9.752;2023-07-02T11:45:15;100118.03;;;21.04;57.96
72560;BME280;62987;52.382;9.752;2023-07-02T11:47:43;100103.53;;;20.86;56.81
72560;BME280;62987;52.382;9.752;2023-07-02T11:50:11;100127.09;;;21.13;57.47
72560;BME280;62987;52.382;9.752;2023-07-02T11:52:53;100113.19;;;20.98;54.69
72560;BME280;62987;52.382;9.752;2023-07-02T11:55:21;100123.88;;;20.90;54.14
72560;BME280;62987;52.382;9.752;2023-07-02T11:57:51;100102.97;;;20.92;54.46
72560;BME280;62987;52.382;9.752;2023-07-02T12:00:19;100111.63;;;21.52;51.55
72560;BME280;62987;52.382;9.752;2023-07-02T12:02:48;100110.78;;;22.95;47.05
72560;BME280;62987;52.382;9.752;2023-07-02T12:05:17;100114.28;;;23.31;45.24
72560;BME280;62987;52.382;9.752;2023-07-02T12:07:45;100123.31;;;22.88;46.66
72560;BME280;62987;52.382;9.752;2023-07-02T12:10:13;100108.81;;;22.44;48.70
72560;BME280;62987;52.382;9.752;2023-07-02T12:12:41;100121.69;;;21.97;49.22
72560;BME280;62987;52.382;9.752;2023-07-02T12:15:11;100120.25;;;21.92;50.39
72560;BME280;62987;52.382;9.752;2023-07-02T12:17:39;100112.41;;;22.17;50.31
72560;BME280;62987;52.382;9.752;2023-07-02T12:20:08;100118.69;;;23.06;47.15
72560;BME280;62987;52.382;9.752;2023-07-02T12:22:36;100124.16;;;23.14;45.76
72560;BME280;62987;52.382;9.752;2023-07-02T12:25:05;100120.69;;;22.78;47.27
72560;BME280;62987;52.382;9.752;2023-07-02T12:27:33;100136.19;;;23.37;47.80
72560;BME280;62987;52.382;9.752;2023-07-02T12:30:01;100106.34;;;23.63;42.82
72560;BME280;62987;52.382;9.752;2023-07-02T12:32:31;100126.06;;;24.15;41.22
72560;BME280;62987;52.382;9.752;2023-07-02T12:34:59;100127.47;;;24.44;40.76
72560;BME280;62987;52.382;9.752;2023-07-02T12:37:27;100127.50;;;25.33;38.23
72560;BME280;62987;52.382;9.752;2023-07-02T12:39:55;100135.03;;;24.82;37.18
72560;BME280;62987;52.382;9.752;2023-07-02T12:42:23;100131.50;;;25.77;37.16
72560;BME280;62987;52.382;9.752;2023-07-02T12:44:51;100105.06;;;25.23;37.91
72560;BME280;62987;52.382;9.752;2023-07-02T12:47:19;100143.44;;;24.39;39.81
72560;BME280;62987;52.382;9.752;2023-07-02T12:49:48;100135.38;;;25.12;40.00
72560;BME280;62987;52.382;9.752;2023-07-02T12:52:16;100129.03;;;25.99;38.09
72560;BME280;62987;52.382;9.752;2023-07-02T12:54:44;100129.19;;;25.42;39.01
72560;BME280;62987;52.382;9.752;2023-07-02T12:57:12;100129.75;;;23.98;37.42
72560;BME280;62987;52.382;9.752;2023-07-02T12:59:41;100142.28;;;23.31;38.54